Latest Coastal Weather Observations for Norah Head

IDN60701

Issued at 7:12 am EDT Friday 6 March 2015 (issued every 10 minutes, with the page automatically refreshed every 10 minutes)

About coastal observations | Map of coastal stations | Coastal observations for NSW | Marine services | Other Formats
Station Details ID: 061366 Name: NORAH HEAD AWS Lat: -33.28 Lon: 151.58 Height: 18.8 m
Data from the previous 72 hours. | See also: Recent months at Norah Head
Date/Time
EDT
Temp

°C
Wind Pressure Rain
since 9am
mm
Weather Cloud Vis
km
Sea
Height
m
Swell
Dir
 
Speed
knots
Gust
knots
hPa Trend Height
m
Period
s
Dir
06/07:00am 17.1 NW 5 7 1008.6 - 0.2 - - - - - - -
06/06:30am 16.9 WNW 3 6 1008.8 - 0.2 - - - - - - -
06/06:00am 16.9 WNW 4 8 1009.0 - 0.2 - - - - - - -
06/05:30am 16.7 WNW 3 5 1009.1 - 0.2 - - - - - - -
06/05:00am 17.0 WNW 3 5 1009.2 - 0.2 - - - - - - -
06/04:30am 17.4 W 4 5 1009.3 - 0.2 - - - - - - -
06/04:00am 17.6 W 4 6 1009.7 - 0.2 - - - - - - -
06/03:30am 17.9 W 4 6 1010.0 - 0.2 - - - - - - -
06/03:00am 18.3 W 3 5 1010.3 - 0.2 - - - - - - -
06/02:30am 18.8 W 4 6 1010.7 - 0.2 - - - - - - -
06/02:00am 19.6 SSE 4 6 1011.2 - 0.2 - - - - - - -
06/01:30am 19.9 ESE 4 6 1011.5 - 0.2 - - - - - - -
06/01:00am 19.9 ESE 3 5 1011.9 - 0.2 - - - - - - -
06/12:30am 20.0 SE 5 7 1012.2 - 0.2 - - - - - - -
06/12:00am 19.8 SSE 8 13 1012.3 - 0.2 - - - - - - -
 
Date/Time
EDT
Temp

°C
Wind Pressure Rain
since 9am
mm
Weather Cloud Vis
km
Sea
Height
m
Swell
Dir
 
Speed
knots
Gust
knots
hPa Trend Height
m
Period
s
Dir
05/11:30pm 19.8 SSE 9 12 1012.4 - 0.2 - - - - - - -
05/11:00pm 20.3 SSE 12 15 1012.7 - 0.2 - - - - - - -
05/10:30pm 20.4 SSE 14 17 1012.8 - 0.2 - - - - - - -
05/10:00pm 20.5 SSE 17 19 1012.7 - 0.2 - - - - - - -
05/09:30pm 20.5 SSE 16 21 1012.5 - 0.2 - - - - - - -
05/09:00pm 20.4 SSE 18 21 1012.1 - 0.2 - - - - - - -
05/08:30pm 20.4 SSE 18 23 1011.4 - 0.2 - - - - - - -
05/08:00pm 20.4 SSE 20 23 1010.9 - 0.2 - - - - - - -
05/07:30pm 20.5 SSE 21 25 1010.4 - 0.2 - - - - - - -
05/07:00pm 20.5 SSE 21 26 1010.0 - 0.2 - - - - - - -
05/06:30pm 20.6 SSE 23 29 1009.6 - 0.2 - - - - - - -
05/06:00pm 20.9 SSE 25 29 1009.0 - 0.2 - - - - - - -
05/05:30pm 21.2 SSE 28 35 1008.8 - 0.2 - - - - - - -
05/05:00pm 21.5 S 30 35 1008.2 - 0.2 - - - - - - -
05/04:30pm 21.8 SSE 29 33 1007.9 - 0.2 - - - - - - -
05/04:00pm 21.9 S 29 33 1007.7 - 0.2 - - - - - - -
05/03:30pm 22.1 S 30 34 1007.5 - 0.2 - - - - - - -
05/03:00pm 22.3 SSE 32 37 1007.2 - 0.2 - - - - - - -
05/02:30pm 23.0 S 28 38 1007.1 - 0.2 - - - - - - -
05/02:25pm 23.8 S 22 38 1006.9 - 0.2 - - - - - - -
05/02:24pm 24.6 S 20 37 1007.0 - 0.2 - - - - - - -
05/02:00pm 25.3 S 17 23 1006.9 - 0.2 - - - - - - -
05/01:30pm 25.5 S 13 16 1006.8 - 0.2 - - - - - - -
05/01:00pm 27.3 SW 7 13 1006.9 - 0.2 - - - - - - -
05/12:30pm 27.5 SW 7 15 1006.8 - 0.2 - - - - - - -
05/12:00pm 27.3 SW 7 13 1007.0 - 0.2 - - - - - - -
05/11:30am 27.6 WSW 5 14 1007.1 - 0.2 - - - - - - -
05/11:00am 27.3 WSW 3 7 1007.2 - 0.2 - - - - - - -
05/10:30am 26.6 SW 4 10 1006.8 - 0.2 - - - - - - -
05/10:00am 26.3 WSW 4 7 1006.2 - 0.2 - - - - - - -
05/09:30am 25.2 WNW 3 8 1005.9 - 0.0 - - - - - - -
05/09:00am 24.2 W 4 8 1006.0 - 0.0 - - - - - - -
05/08:30am 23.2 W 2 5 1005.9 - 0.0 - - - - - - -
05/08:00am 22.1 WNW 3 4 1005.6 - 0.0 - - - - - - -
05/07:30am 21.4 WNW 5 9 1005.2 - 0.0 - - - - - - -
05/07:00am 21.2 W 7 10 1004.7 - 0.0 - - - - - - -
05/06:30am 20.6 WNW 5 7 1004.3 - 0.0 - - - - - - -
05/06:00am 21.1 WNW 5 9 1004.1 - 0.0 - - - - - - -
05/05:30am 21.1 NNW 2 4 1003.9 - 0.0 - - - - - - -
05/05:00am 20.9 NNW 2 4 1004.1 - 0.0 - - - - - - -
05/04:30am 20.7 NW 4 5 1004.3 - 0.0 - - - - - - -
05/04:00am 21.0 SW 2 4 1004.7 - 0.0 - - - - - - -
05/03:30am 21.2 W 1 4 1005.0 - 0.0 - - - - - - -
05/03:00am 21.7 WSW 3 4 1005.4 - 0.0 - - - - - - -
05/02:30am 21.8 SW 2 4 1005.9 - 0.0 - - - - - - -
05/02:00am 22.2 SSW 7 9 1006.3 - 0.0 - - - - - - -
05/01:30am 22.5 SSW 5 7 1006.7 - 0.0 - - - - - - -
05/01:00am 22.5 SSW 6 7 1007.1 - 0.0 - - - - - - -
05/12:30am 22.6 SSW 5 7 1007.2 - 0.0 - - - - - - -
05/12:00am 22.4 SSW 3 3 1007.5 - 0.0 - - - - - - -
 
Date/Time
EDT
Temp

°C
Wind Pressure Rain
since 9am
mm
Weather Cloud Vis
km
Sea
Height
m
Swell
Dir
 
Speed
knots
Gust
knots
hPa Trend Height
m
Period
s
Dir
04/11:30pm 22.7 CALM 0 0 1007.8 - 0.0 - - - - - - -
04/11:00pm 22.5 S 1 2 1007.9 - 0.0 - - - - - - -
04/10:30pm 22.5 SSW 2 3 1008.2 - 0.0 - - - - - - -
04/10:00pm 22.7 CALM 0 0 1008.6 - 0.0 - - - - - - -
04/09:30pm 22.7 N 2 3 1008.5 - 0.0 - - - - - - -
04/09:00pm 22.8 NNE 2 3 1008.5 - 0.0 - - - - - - -
04/08:30pm 22.9 N 4 5 1008.4 - 0.0 - - - - - - -
04/08:00pm 23.0 N 5 6 1008.2 - 0.0 - - - - - - -
04/07:30pm 23.2 NNE 6 7 1008.3 - 0.0 - - - - - - -
04/07:00pm 23.6 NNE 6 7 1008.3 - 0.0 - - - - - - -
04/06:30pm 24.2 NE 4 5 1008.4 - 0.0 - - - - - - -
04/06:00pm 24.7 ENE 5 6 1008.5 - 0.0 - - - - - - -
04/05:30pm 24.7 SE 5 6 1008.8 - 0.0 - - - - - - -
04/05:00pm 24.6 ESE 6 7 1008.9 - 0.0 - - - - - - -
04/04:30pm 25.2 SE 7 8 1009.0 - 0.0 - - - - - - -
04/04:00pm 25.5 SSE 9 11 1009.3 - 0.0 - - - - - - -
04/03:30pm 25.4 S 10 12 1009.7 - 0.0 - - - - - - -
04/03:00pm 25.5 S 8 10 1009.9 - 0.0 - - - - - - -
04/02:30pm 24.9 S 10 12 1010.3 - 0.0 - - - - - - -
04/02:00pm 25.6 S 8 9 1010.6 - 0.0 - - - - - - -
04/01:30pm 25.9 S 7 8 1011.0 - 0.0 - - - - - - -
04/01:00pm 25.1 S 7 8 1011.4 - 0.0 - - - - - - -
04/12:30pm 25.8 SSE 5 6 1011.8 - 0.0 - - - - - - -
04/12:00pm 25.5 SE 4 4 1012.1 - 0.0 - - - - - - -
04/11:30am 26.3 NE 3 4 1012.4 - 0.0 - - - - - - -
04/11:00am 26.8 NNE 5 7 1012.5 - 0.0 - - - - - - -
04/10:30am 23.0 NNE 7 8 1012.7 - 0.0 - - - - - - -
04/10:00am 23.0 NNE 8 9 1012.7 - 0.0 - - - - - - -
04/09:30am 23.1 NE 9 11 1012.8 - 0.0 - - - - - - -
04/09:00am 22.9 NE 10 11 1012.8 - 0.0 - - - - - - -
04/08:30am 22.6 NE 13 16 1012.4 - 0.0 - - - - - - -
04/08:00am 22.6 NE 12 15 1012.2 - 0.0 - - - - - - -
04/07:30am 22.4 ENE 10 13 1012.2 - 0.0 - - - - - - -
04/07:00am 22.5 E 9 12 1011.8 - 0.0 - - - - - - -
04/06:30am 22.5 E 8 9 1011.6 - 0.0 - - - - - - -
04/06:00am 22.4 E 7 9 1011.8 - 0.0 - - - - - - -
04/05:30am 22.4 E 8 9 1011.5 - 0.0 - - - - - - -
04/05:00am 22.5 E 5 7 1011.5 - 0.0 - - - - - - -
04/04:30am 22.5 ENE 8 9 1011.4 - 0.0 - - - - - - -
04/04:00am 22.6 E 6 8 1011.6 - 0.0 - - - - - - -
04/03:30am 22.6 E 5 6 1012.0 - 0.0 - - - - - - -
04/03:00am 22.6 E 5 6 1012.0 - 0.0 - - - - - - -
04/02:30am 22.6 E 5 6 1012.1 - 0.0 - - - - - - -
04/02:00am 22.4 E 6 7 1012.5 - 0.0 - - - - - - -
04/01:30am 22.5 E 5 6 1012.9 - 0.0 - - - - - - -
04/01:00am 22.4 E 5 5 1012.9 - 0.0 - - - - - - -
04/12:30am 22.6 ENE 5 6 1013.1 - 0.0 - - - - - - -
04/12:00am 22.4 ENE 5 7 1013.2 - 0.0 - - - - - - -
 
Date/Time
EDT
Temp

°C
Wind Pressure Rain
since 9am
mm
Weather Cloud Vis
km
Sea
Height
m
Swell
Dir
 
Speed
knots
Gust
knots
hPa Trend Height
m
Period
s
Dir
03/11:30pm 22.5 NE 7 8 1013.4 - 0.0 - - - - - - -
03/11:00pm 22.5 NE 7 8 1013.6 - 0.0 - - - - - - -
03/10:30pm 22.6 NE 7 9 1013.8 - 0.0 - - - - - - -
03/10:00pm 22.7 NE 9 11 1014.0 - 0.0 - - - - - - -
03/09:30pm 22.8 NE 10 12 1013.7 - 0.0 - - - - - - -
03/09:00pm 22.8 NNE 11 14 1013.6 - 0.0 - - - - - - -
03/08:30pm 22.9 NNE 11 13 1013.5 - 0.0 - - - - - - -
03/08:00pm 22.8 NNE 10 12 1013.1 - 0.0 - - - - - - -
03/07:30pm 22.9 NE 9 10 1013.0 - 0.0 - - - - - - -
03/07:00pm 23.1 NE 11 13 1012.8 - 0.0 - - - - - - -
03/06:30pm 23.1 NE 12 14 1013.0 - 0.0 - - - - - - -
03/06:00pm 23.3 NE 12 15 1012.9 - 0.0 - - - - - - -
03/05:30pm 23.6 NE 13 15 1012.9 - 0.0 - - - - - - -
03/05:00pm 23.9 NE 13 16 1012.8 - 0.0 - - - - - - -
03/04:30pm 25.5 ENE 15 17 1012.7 - 0.0 - - - - - - -
03/04:00pm 25.5 ENE 15 17 1012.8 - 0.0 - - - - - - -
03/03:30pm 25.2 ENE 14 16 1013.0 - 0.0 - - - - - - -
03/03:00pm 25.5 ENE 14 16 1013.2 - 0.0 - - - - - - -
03/02:30pm 26.2 ENE 13 15 1013.6 - 0.0 - - - - - - -
03/02:00pm 25.9 ENE 13 14 1013.8 - 0.0 - - - - - - -
03/01:30pm 26.1 ENE 13 14 1014.2 - 0.0 - - - - - - -
03/01:00pm 27.4 NE 12 13 1014.6 - 0.0 - - - - - - -
03/12:30pm 26.3 NE 11 13 1015.0 - 0.0 - - - - - - -
03/12:00pm 26.2 NE 10 12 1015.6 - 0.0 - - - - - - -
03/11:30am 24.9 NNE 8 10 1015.9 - 0.0 - - - - - - -
03/11:00am 26.8 NE 6 7 1016.3 - 0.0 - - - - - - -
03/10:30am 25.1 N 4 7 1016.5 - 0.0 - - - - - - -
03/10:00am 24.4 N 4 5 1016.3 - 0.0 - - - - - - -
03/09:30am 23.4 NNW 3 5 1016.3 - 0.0 - - - - - - -
03/09:00am 22.3 NNW 2 4 1016.0 - 0.0 - - - - - - -
03/08:30am 21.0 NW 3 4 1015.8 - 0.0 - - - - - - -
03/08:00am 20.0 WNW 3 4 1015.8 - 0.0 - - - - - - -
03/07:30am 18.6 WNW 4 5 1015.5 - 0.0 - - - - - - -

Other Formats:

Comma delimited format used in spreadsheet applications
http://www.bom.gov.au/fwo/IDN60701/IDN60701.95770.axf

JavaScript Object Notation format (JSON) in row-major order
http://www.bom.gov.au/fwo/IDN60701/IDN60701.95770.json